createdAt,value
2023-12-19T00:01:57.582Z,32.58
2023-12-19T00:04:24.431Z,30.92
2023-12-19T00:06:50.996Z,31.27
2023-12-19T00:09:17.555Z,29.92
2023-12-19T00:11:44.037Z,30.42
2023-12-19T00:14:10.612Z,30.20
2023-12-19T00:16:37.960Z,30.40
2023-12-19T00:19:04.569Z,32.83
2023-12-19T00:21:31.090Z,35.85
2023-12-19T00:23:57.532Z,30.50
2023-12-19T00:26:24.118Z,30.33
2023-12-19T00:28:50.544Z,31.50
2023-12-19T00:31:22.141Z,31.73
2023-12-19T00:33:48.967Z,32.15
2023-12-19T00:36:22.924Z,31.77
2023-12-19T00:38:50.028Z,31.10
2023-12-19T00:41:17.476Z,30.90
2023-12-19T00:43:46.725Z,32.78
2023-12-19T00:46:13.853Z,32.80
2023-12-19T00:48:40.859Z,30.48
2023-12-19T00:51:15.319Z,32.58
2023-12-19T00:53:42.495Z,32.08
2023-12-19T00:56:10.425Z,31.05
2023-12-19T00:58:37.949Z,31.20
2023-12-19T01:01:08.311Z,32.03
2023-12-19T01:03:36.106Z,28.73
2023-12-19T01:06:04.199Z,30.40
2023-12-19T01:08:31.110Z,29.52
2023-12-19T01:10:57.591Z,31.75
2023-12-19T01:13:24.079Z,32.05
2023-12-19T01:15:51.123Z,55.83
2023-12-19T01:18:17.761Z,33.70
2023-12-19T01:20:49.003Z,31.80
2023-12-19T01:23:18.989Z,32.72
2023-12-19T01:25:45.461Z,36.10
2023-12-19T01:28:15.810Z,34.97
2023-12-19T01:30:43.715Z,36.47
2023-12-19T01:33:10.959Z,35.60
2023-12-19T01:35:37.870Z,38.25
2023-12-19T01:38:04.870Z,35.33
2023-12-19T01:40:32.716Z,37.78
2023-12-19T01:43:00.341Z,38.20
2023-12-19T01:45:28.593Z,38.83
2023-12-19T01:47:55.723Z,37.65
2023-12-19T01:50:22.537Z,38.75
2023-12-19T01:52:55.214Z,39.28
2023-12-19T01:55:24.835Z,38.90
2023-12-19T01:57:51.632Z,41.08
2023-12-19T02:00:18.178Z,41.60
2023-12-19T02:02:51.438Z,40.67
2023-12-19T02:05:18.816Z,42.00
2023-12-19T02:07:45.534Z,40.20
2023-12-19T02:10:13.062Z,40.72
2023-12-19T02:12:39.872Z,43.55
2023-12-19T02:15:08.028Z,41.20
2023-12-19T02:17:34.514Z,39.75
2023-12-19T02:20:03.653Z,39.80
2023-12-19T02:22:31.759Z,37.47
2023-12-19T02:24:59.452Z,34.67
2023-12-19T02:27:26.835Z,35.97
2023-12-19T02:29:53.533Z,35.17
2023-12-19T02:32:20.046Z,32.50
2023-12-19T02:34:47.120Z,29.17
2023-12-19T02:37:13.825Z,33.08
2023-12-19T02:39:40.386Z,30.00
2023-12-19T02:42:06.841Z,27.70
2023-12-19T02:44:33.359Z,28.98
2023-12-19T02:47:00.006Z,29.27
2023-12-19T02:49:26.577Z,30.25
2023-12-19T02:51:53.558Z,27.40
2023-12-19T02:54:20.596Z,28.63
2023-12-19T02:56:47.070Z,27.10
2023-12-19T02:59:13.665Z,27.92
2023-12-19T03:01:40.155Z,28.23
2023-12-19T03:04:06.828Z,29.38
2023-12-19T03:06:33.377Z,31.15
2023-12-19T03:08:59.800Z,30.85
2023-12-19T03:11:26.783Z,31.85
2023-12-19T03:13:53.215Z,28.17
2023-12-19T03:16:19.720Z,28.77
2023-12-19T03:18:46.225Z,27.90
2023-12-19T03:21:12.989Z,30.85
2023-12-19T03:23:39.511Z,35.28
2023-12-19T03:26:05.982Z,36.50
2023-12-19T03:28:32.468Z,35.03
2023-12-19T03:30:59.449Z,34.92
2023-12-19T03:33:26.220Z,37.13
2023-12-19T03:35:52.718Z,36.65
2023-12-19T03:38:19.156Z,40.45
2023-12-19T03:40:45.564Z,37.22
2023-12-19T03:43:12.946Z,38.20
2023-12-19T03:45:39.518Z,36.55
2023-12-19T03:48:06.651Z,36.20
2023-12-19T03:50:33.289Z,37.50
2023-12-19T03:52:59.691Z,35.67
2023-12-19T03:55:26.127Z,37.25
2023-12-19T03:57:52.616Z,37.70
2023-12-19T04:00:19.285Z,38.78
2023-12-19T04:02:46.241Z,43.72
2023-12-19T04:05:12.953Z,41.35
2023-12-19T04:07:39.413Z,38.13
2023-12-19T04:10:06.394Z,44.55
2023-12-19T04:12:33.082Z,36.60
2023-12-19T04:14:59.522Z,36.15
2023-12-19T04:17:26.093Z,43.80
2023-12-19T04:19:52.560Z,39.00
2023-12-19T04:22:19.077Z,41.67
2023-12-19T04:24:45.529Z,36.10
2023-12-19T04:27:11.971Z,41.35
2023-12-19T04:29:40.077Z,41.33
2023-12-19T04:32:07.179Z,40.10
2023-12-19T04:34:33.722Z,39.38
2023-12-19T04:37:01.043Z,45.90
2023-12-19T04:39:27.581Z,43.50
2023-12-19T04:41:54.085Z,48.88
2023-12-19T04:44:20.532Z,38.30
2023-12-19T04:46:46.910Z,39.75
2023-12-19T04:49:13.730Z,43.58
2023-12-19T04:51:40.296Z,37.83
2023-12-19T04:54:09.927Z,34.63
2023-12-19T04:56:37.167Z,40.38
2023-12-19T04:59:03.636Z,48.63
2023-12-19T05:01:30.164Z,43.50
2023-12-19T05:03:56.762Z,32.25
2023-12-19T05:06:23.296Z,37.90
2023-12-19T05:08:50.521Z,35.38
2023-12-19T05:11:17.144Z,36.92
2023-12-19T05:13:43.633Z,38.30
2023-12-19T05:16:14.368Z,37.08
2023-12-19T05:18:44.548Z,39.08
2023-12-19T05:21:11.926Z,38.65
2023-12-19T05:23:40.066Z,38.60
2023-12-19T05:26:08.070Z,38.03
2023-12-19T05:28:43.446Z,37.10
2023-12-19T05:31:11.032Z,35.17
2023-12-19T05:33:38.194Z,39.10
2023-12-19T05:36:05.191Z,40.63
2023-12-19T05:38:33.714Z,36.70
2023-12-19T05:41:00.483Z,37.70
2023-12-19T05:43:27.034Z,37.70
2023-12-19T05:45:53.675Z,38.65
2023-12-19T05:48:24.000Z,35.65
2023-12-19T05:50:50.728Z,38.03
2023-12-19T05:53:17.368Z,40.55
2023-12-19T05:55:45.239Z,38.80
2023-12-19T05:58:12.190Z,36.72
2023-12-19T06:00:50.816Z,36.55
2023-12-19T06:03:17.664Z,35.17
2023-12-19T06:05:44.207Z,32.80
2023-12-19T06:08:10.691Z,32.40
2023-12-19T06:10:37.139Z,29.65
2023-12-19T06:13:03.830Z,30.77
2023-12-19T06:15:30.608Z,29.45
2023-12-19T06:17:57.184Z,30.45
2023-12-19T06:20:23.632Z,30.38
2023-12-19T06:22:50.409Z,33.38
2023-12-19T06:25:16.899Z,26.58
2023-12-19T06:27:45.193Z,30.27
2023-12-19T06:30:22.504Z,30.33
2023-12-19T06:32:54.311Z,29.73
2023-12-19T06:35:20.788Z,31.88
2023-12-19T06:37:47.273Z,30.75
2023-12-19T06:40:13.801Z,27.40
2023-12-19T06:42:40.596Z,29.60
2023-12-19T06:45:08.003Z,29.63
2023-12-19T06:47:36.846Z,27.23
2023-12-19T06:50:04.930Z,27.75
2023-12-19T06:52:31.647Z,28.23
2023-12-19T06:55:02.010Z,27.90
2023-12-19T06:57:28.651Z,29.15
2023-12-19T06:59:55.352Z,29.92
2023-12-19T07:02:22.123Z,27.75
2023-12-19T07:04:48.584Z,44.70
2023-12-19T07:07:15.326Z,28.00
2023-12-19T07:09:41.912Z,29.52
2023-12-19T07:12:08.827Z,29.42
2023-12-19T07:14:35.438Z,28.55
2023-12-19T07:17:02.571Z,27.75
2023-12-19T07:19:29.238Z,24.05
2023-12-19T07:21:55.907Z,25.83
2023-12-19T07:24:22.612Z,25.65
2023-12-19T07:26:49.008Z,24.42
2023-12-19T07:29:15.482Z,26.13
2023-12-19T07:31:41.976Z,23.92
2023-12-19T07:34:09.063Z,25.65
2023-12-19T07:36:35.872Z,24.73
2023-12-19T07:39:04.434Z,27.58
2023-12-19T07:41:32.588Z,26.00
2023-12-19T07:44:00.198Z,27.45
2023-12-19T07:46:27.072Z,24.25
2023-12-19T07:48:53.759Z,28.73
2023-12-19T07:51:25.359Z,27.20
2023-12-19T07:53:53.949Z,26.58
2023-12-19T07:56:20.670Z,27.20
2023-12-19T07:58:47.572Z,25.90
2023-12-19T08:01:14.737Z,27.17
2023-12-19T08:03:43.959Z,24.83
2023-12-19T08:06:11.203Z,29.85
2023-12-19T08:08:38.630Z,26.55
2023-12-19T08:11:05.165Z,27.25
2023-12-19T08:13:31.709Z,27.80
2023-12-19T08:15:58.415Z,27.77
2023-12-19T08:18:25.107Z,24.88
2023-12-19T08:20:51.617Z,35.05
2023-12-19T08:23:18.124Z,26.50
2023-12-19T08:25:44.903Z,25.38
2023-12-19T08:28:12.125Z,24.05
2023-12-19T08:30:40.711Z,26.75
2023-12-19T08:33:07.376Z,26.63
2023-12-19T08:35:33.928Z,22.50
2023-12-19T08:38:00.440Z,21.92
2023-12-19T08:40:26.933Z,23.58
2023-12-19T08:42:57.322Z,22.20
2023-12-19T08:45:24.337Z,21.20
2023-12-19T08:47:51.805Z,31.30
2023-12-19T08:50:19.227Z,21.92
2023-12-19T08:52:47.334Z,22.20
2023-12-19T08:55:14.174Z,20.85
2023-12-19T08:57:45.854Z,21.40
2023-12-19T09:00:21.454Z,20.33
2023-12-19T09:02:48.893Z,21.17
2023-12-19T09:05:19.423Z,21.40
2023-12-19T09:07:50.195Z,22.38
2023-12-19T09:10:18.070Z,21.00
2023-12-19T09:12:45.286Z,18.30
2023-12-19T09:15:12.264Z,21.27
2023-12-19T09:17:39.066Z,21.52
2023-12-19T09:20:07.130Z,22.20
2023-12-19T09:22:33.765Z,19.17
2023-12-19T09:25:00.543Z,20.73
2023-12-19T09:27:27.167Z,21.75
2023-12-19T09:29:53.942Z,19.95
2023-12-19T09:32:20.653Z,32.38
2023-12-19T09:34:47.994Z,18.40
2023-12-19T09:37:14.644Z,25.10
2023-12-19T09:39:41.147Z,18.35
2023-12-19T09:42:07.993Z,17.42
2023-12-19T09:44:34.494Z,16.75
2023-12-19T09:47:02.026Z,17.42
2023-12-19T09:49:32.831Z,24.45
2023-12-19T09:52:00.551Z,15.57
2023-12-19T09:54:27.320Z,16.58
2023-12-19T09:56:55.182Z,19.77
2023-12-19T09:59:22.362Z,18.50
2023-12-19T10:01:49.244Z,17.13
2023-12-19T10:04:16.067Z,16.08
2023-12-19T10:06:54.884Z,15.88
2023-12-19T10:09:22.525Z,17.60
2023-12-19T10:12:11.660Z,17.10
2023-12-19T10:14:38.453Z,17.55
2023-12-19T10:17:12.680Z,16.02
2023-12-19T10:22:11.502Z,16.35
2023-12-19T10:24:38.476Z,17.40
2023-12-19T10:27:09.411Z,17.77
2023-12-19T10:29:39.954Z,15.73
2023-12-19T10:32:18.438Z,18.27
2023-12-19T10:34:45.812Z,18.15
2023-12-19T10:37:13.934Z,18.15
2023-12-19T10:39:43.649Z,16.90
2023-12-19T10:42:13.083Z,18.33
2023-12-19T10:44:42.936Z,21.58
2023-12-19T10:47:11.651Z,17.95
2023-12-19T10:49:39.256Z,20.58
2023-12-19T10:52:10.749Z,17.63
2023-12-19T10:54:38.487Z,20.30
2023-12-19T10:57:18.859Z,26.70
2023-12-19T10:59:53.935Z,25.73
2023-12-19T11:02:32.612Z,26.67
2023-12-19T11:05:46.612Z,43.67
2023-12-19T11:08:16.959Z,26.17
2023-12-19T11:11:05.551Z,26.20
2023-12-19T11:13:33.922Z,26.23
2023-12-19T11:16:09.918Z,28.27
2023-12-19T11:18:47.428Z,25.98
2023-12-19T11:21:21.975Z,38.00
2023-12-19T11:26:51.393Z,27.35
2023-12-19T11:29:44.767Z,25.67
2023-12-19T11:32:30.097Z,26.27
2023-12-19T11:35:14.093Z,28.08
2023-12-19T11:37:42.881Z,27.13
2023-12-19T11:40:10.706Z,25.25
2023-12-19T11:42:40.727Z,30.63
2023-12-19T11:45:19.764Z,29.63
2023-12-19T11:47:47.573Z,30.75
2023-12-19T11:50:40.592Z,35.47
2023-12-19T11:53:09.941Z,34.38
2023-12-19T11:55:36.475Z,39.03
2023-12-19T11:58:13.251Z,38.30
2023-12-19T12:00:43.536Z,41.78
2023-12-19T12:03:12.515Z,40.95
2023-12-19T12:05:39.006Z,40.40
2023-12-19T12:08:06.236Z,67.45
2023-12-19T12:10:32.808Z,39.00
2023-12-19T12:13:02.919Z,40.70
2023-12-19T12:15:29.457Z,41.10
2023-12-19T12:18:07.011Z,38.10
2023-12-19T12:20:35.508Z,37.28
2023-12-19T12:23:02.696Z,36.40
2023-12-19T12:25:29.517Z,38.45
2023-12-19T12:28:13.253Z,43.17
2023-12-19T12:30:40.484Z,40.83
2023-12-19T12:33:07.980Z,37.83
2023-12-19T12:35:37.064Z,36.92
2023-12-19T12:38:08.544Z,39.45
2023-12-19T12:40:35.421Z,36.05
2023-12-19T12:43:40.856Z,33.65
2023-12-19T12:46:09.807Z,35.78
2023-12-19T12:48:38.316Z,34.58
2023-12-19T12:51:07.958Z,37.35
2023-12-19T12:53:35.920Z,36.78
2023-12-19T12:56:15.405Z,38.78
2023-12-19T12:58:42.970Z,35.72
2023-12-19T13:01:10.504Z,37.92
2023-12-19T13:03:38.343Z,38.72
2023-12-19T13:06:06.270Z,37.72
2023-12-19T13:08:34.551Z,39.25
2023-12-19T13:11:08.712Z,39.58
2023-12-19T13:13:35.930Z,40.78
2023-12-19T13:16:08.150Z,43.67
2023-12-19T13:18:37.215Z,41.88
2023-12-19T13:21:07.661Z,41.75
2023-12-19T13:23:37.299Z,41.47
2023-12-19T13:26:04.057Z,43.05
2023-12-19T13:28:31.364Z,43.20
2023-12-19T13:30:57.949Z,45.10
2023-12-19T13:33:24.948Z,44.97
2023-12-19T13:35:51.680Z,45.67
2023-12-19T13:38:20.024Z,50.78
2023-12-19T13:40:46.728Z,45.97
2023-12-19T13:43:13.894Z,48.03
2023-12-19T13:45:40.504Z,48.25
2023-12-19T13:48:08.118Z,48.38
2023-12-19T13:50:35.519Z,51.70
2023-12-19T13:53:02.924Z,49.28
2023-12-19T13:55:32.791Z,50.70
2023-12-19T13:57:59.253Z,55.55
2023-12-19T14:00:31.590Z,50.63
2023-12-19T14:03:00.222Z,46.22
2023-12-19T14:05:28.518Z,50.85
2023-12-19T14:07:58.428Z,48.75
2023-12-19T14:10:26.109Z,50.63
2023-12-19T14:12:52.885Z,51.95
2023-12-19T14:15:20.949Z,46.78
2023-12-19T14:17:48.164Z,49.25
2023-12-19T14:20:16.195Z,47.85
2023-12-19T14:22:42.927Z,50.53
2023-12-19T14:25:11.104Z,91.85
2023-12-19T14:27:38.633Z,49.03
2023-12-19T14:30:07.878Z,50.88
2023-12-19T14:32:34.426Z,54.08
2023-12-19T14:35:01.892Z,50.45
2023-12-19T14:37:29.149Z,49.67
2023-12-19T14:39:56.761Z,51.17
2023-12-19T14:42:31.080Z,49.95
2023-12-19T14:44:58.259Z,65.57
2023-12-19T14:47:25.380Z,51.05
2023-12-19T14:49:52.003Z,53.42
2023-12-19T14:52:21.358Z,49.00
2023-12-19T14:54:48.132Z,45.88
2023-12-19T14:57:14.807Z,49.13
2023-12-19T14:59:41.451Z,46.97
2023-12-19T15:02:08.232Z,49.90
2023-12-19T15:04:37.970Z,54.03
2023-12-19T15:07:05.858Z,48.47
2023-12-19T15:09:32.603Z,52.60
2023-12-19T15:12:01.464Z,48.80
2023-12-19T15:14:29.187Z,51.53
2023-12-19T15:16:55.662Z,51.38
2023-12-19T15:19:22.537Z,54.80
2023-12-19T15:21:49.249Z,50.53
2023-12-19T15:24:18.267Z,54.22
2023-12-19T15:26:44.650Z,54.00
2023-12-19T15:29:13.993Z,53.13
2023-12-19T15:31:47.794Z,55.10
2023-12-19T15:34:14.716Z,55.40
2023-12-19T15:36:41.269Z,65.47
2023-12-19T15:39:08.183Z,49.13
2023-12-19T15:41:35.133Z,52.42
2023-12-19T15:44:08.520Z,54.15
2023-12-19T15:46:41.139Z,54.90
2023-12-19T15:49:14.172Z,61.03
2023-12-19T15:51:41.764Z,58.70
2023-12-19T15:54:08.422Z,50.47
2023-12-19T15:56:36.082Z,54.65
2023-12-19T15:59:20.678Z,54.58
2023-12-19T16:07:26.416Z,62.03
2023-12-19T16:10:19.784Z,63.85
2023-12-19T16:12:47.511Z,51.97
2023-12-19T16:15:15.063Z,56.45
2023-12-19T16:17:41.601Z,58.97
2023-12-19T16:20:08.679Z,54.85
2023-12-19T16:22:37.747Z,60.00
2023-12-19T16:25:07.086Z,54.88
2023-12-19T16:27:36.301Z,90.38
2023-12-19T16:30:04.064Z,61.72
2023-12-19T16:32:40.164Z,58.50
2023-12-19T16:35:07.050Z,72.95
2023-12-19T16:37:36.785Z,63.33
2023-12-19T16:40:04.779Z,53.63
2023-12-19T16:42:48.851Z,53.90
2023-12-19T16:45:17.440Z,53.60
2023-12-19T16:47:48.767Z,56.83
2023-12-19T16:50:16.203Z,62.67
2023-12-19T16:52:43.813Z,62.22
2023-12-19T16:55:11.270Z,77.00
2023-12-19T16:57:37.950Z,58.17
2023-12-19T17:00:06.636Z,71.15
2023-12-19T17:02:33.677Z,69.50
2023-12-19T17:05:00.200Z,68.40
2023-12-19T17:07:26.845Z,91.00
2023-12-19T17:09:53.301Z,66.50
2023-12-19T17:12:19.786Z,167.93
2023-12-19T17:14:46.270Z,132.52
2023-12-19T17:17:12.739Z,69.20
2023-12-19T17:19:39.242Z,70.05
2023-12-19T17:22:06.120Z,65.75
2023-12-19T17:24:38.334Z,71.03
2023-12-19T17:27:07.434Z,76.40
2023-12-19T17:29:33.927Z,120.35
2023-12-19T17:32:03.811Z,72.40
2023-12-19T17:34:33.411Z,132.27
2023-12-19T17:36:59.997Z,119.72
2023-12-19T17:39:30.592Z,70.65
2023-12-19T17:41:56.989Z,106.22
2023-12-19T17:44:23.391Z,73.05
2023-12-19T17:46:51.567Z,75.82
2023-12-19T17:49:18.300Z,81.18
2023-12-19T17:51:45.065Z,69.22
2023-12-19T17:54:11.688Z,162.30
2023-12-19T17:56:38.194Z,70.72
2023-12-19T17:59:07.787Z,84.00
2023-12-19T18:01:34.367Z,93.88
2023-12-19T18:04:00.882Z,85.15
2023-12-19T18:06:27.360Z,71.53
2023-12-19T18:08:53.818Z,90.40
2023-12-19T18:11:20.381Z,82.28
2023-12-19T18:13:46.872Z,77.70
2023-12-19T18:16:13.483Z,73.10
2023-12-19T18:18:40.258Z,93.78
2023-12-19T18:21:08.871Z,78.03
2023-12-19T18:23:37.708Z,74.80
2023-12-19T18:26:07.268Z,73.85
2023-12-19T18:28:36.954Z,71.95
2023-12-19T18:31:03.565Z,70.80
2023-12-19T18:33:33.166Z,76.85
2023-12-19T18:36:01.413Z,74.47
2023-12-19T18:38:27.882Z,70.25
2023-12-19T18:40:54.305Z,73.18
2023-12-19T18:43:23.747Z,68.35
2023-12-19T18:45:50.345Z,76.65
2023-12-19T18:48:16.976Z,77.35
2023-12-19T18:50:43.700Z,78.15
2023-12-19T18:53:10.489Z,83.35
2023-12-19T18:55:37.801Z,83.25
2023-12-19T18:58:04.839Z,74.47
2023-12-19T19:00:31.562Z,84.07
2023-12-19T19:02:58.270Z,75.22
2023-12-19T19:05:24.859Z,77.43
2023-12-19T19:07:54.860Z,91.00
2023-12-19T19:10:21.657Z,78.20
2023-12-19T19:12:54.401Z,74.88
2023-12-19T19:15:21.681Z,78.28
2023-12-19T19:17:48.282Z,70.55
2023-12-19T19:20:42.188Z,75.30
2023-12-19T19:23:16.628Z,62.40
2023-12-19T19:25:44.257Z,76.10
2023-12-19T19:28:14.588Z,65.78
2023-12-19T19:30:42.840Z,69.45
2023-12-19T19:33:09.598Z,66.85
2023-12-19T19:35:36.710Z,69.40
2023-12-19T19:38:05.230Z,74.13
2023-12-19T19:40:38.916Z,70.45
2023-12-19T19:43:10.740Z,61.22
2023-12-19T19:45:37.623Z,68.15
2023-12-19T19:48:31.299Z,67.63
2023-12-19T19:50:58.015Z,63.83
2023-12-19T19:53:24.639Z,62.88
2023-12-19T19:55:51.219Z,69.70
2023-12-19T19:58:17.820Z,66.57
2023-12-19T20:00:53.810Z,69.50
2023-12-19T20:03:20.708Z,61.33
2023-12-19T20:05:47.276Z,66.93
2023-12-19T20:08:13.820Z,63.40
2023-12-19T20:10:40.586Z,65.53
2023-12-19T20:13:07.472Z,61.92
2023-12-19T20:15:34.461Z,60.00
2023-12-19T20:18:02.445Z,55.28
2023-12-19T20:20:29.687Z,56.33
2023-12-19T20:22:56.106Z,57.33
2023-12-19T20:25:22.755Z,53.00
2023-12-19T20:27:50.044Z,54.50
2023-12-19T20:30:19.037Z,56.30
2023-12-19T20:32:46.529Z,56.03
2023-12-19T20:35:13.801Z,58.28
2023-12-19T20:37:42.753Z,60.08
2023-12-19T20:40:11.840Z,62.00
2023-12-19T20:42:39.399Z,64.10
2023-12-19T20:45:06.542Z,59.30
2023-12-19T20:47:33.484Z,62.35
2023-12-19T20:50:00.328Z,59.33
2023-12-19T20:52:27.104Z,60.30
2023-12-19T20:54:54.069Z,61.50
2023-12-19T20:57:20.744Z,62.72
2023-12-19T20:59:47.389Z,62.13
2023-12-19T21:02:14.889Z,63.35
2023-12-19T21:04:44.589Z,65.25
2023-12-19T21:07:18.093Z,58.85
2023-12-19T21:09:48.258Z,57.83
2023-12-19T21:12:14.975Z,56.83
2023-12-19T21:14:41.760Z,58.35
2023-12-19T21:17:09.968Z,58.95
2023-12-19T21:20:08.702Z,58.03
2023-12-19T21:22:39.840Z,54.30
2023-12-19T21:25:06.882Z,56.13
2023-12-19T21:30:28.841Z,51.40
2023-12-19T21:32:55.503Z,57.08
2023-12-19T21:35:22.781Z,58.13
2023-12-19T21:37:49.304Z,56.70
2023-12-19T21:40:15.911Z,61.95
2023-12-19T21:42:43.361Z,62.50
2023-12-19T21:45:10.535Z,57.97
2023-12-19T21:47:37.082Z,62.90
2023-12-19T21:50:04.074Z,59.65
2023-12-19T21:52:30.754Z,60.38
2023-12-19T21:54:58.222Z,63.15
2023-12-19T21:57:25.294Z,64.22
2023-12-19T21:59:51.739Z,71.30
2023-12-19T22:02:18.997Z,63.55
2023-12-19T22:04:45.724Z,62.70
2023-12-19T22:07:12.541Z,64.85
2023-12-19T22:09:41.019Z,67.85
2023-12-19T22:12:12.039Z,64.35
2023-12-19T22:14:38.496Z,67.47
2023-12-19T22:17:05.102Z,65.30
2023-12-19T22:19:31.550Z,68.78
2023-12-19T22:21:58.110Z,63.30
2023-12-19T22:24:24.555Z,63.38
2023-12-19T22:26:51.160Z,63.92
2023-12-19T22:29:19.615Z,68.20
2023-12-19T22:31:46.199Z,74.57
2023-12-19T22:34:13.971Z,73.72
2023-12-19T22:36:40.542Z,69.07
2023-12-19T22:39:07.000Z,69.95
2023-12-19T22:41:34.119Z,74.97
2023-12-19T22:44:00.592Z,72.82
2023-12-19T22:46:27.097Z,78.65
2023-12-19T22:48:53.531Z,75.22
2023-12-19T22:51:20.033Z,84.57
2023-12-19T22:53:50.522Z,76.07
2023-12-19T22:56:18.734Z,77.05
2023-12-19T22:58:45.726Z,77.40
2023-12-19T23:01:21.720Z,69.40
2023-12-19T23:03:49.387Z,70.10
2023-12-19T23:06:18.132Z,77.28
2023-12-19T23:08:44.656Z,69.72
2023-12-19T23:11:12.256Z,67.55
2023-12-19T23:13:39.238Z,70.43
2023-12-19T23:16:07.730Z,69.70
2023-12-19T23:18:35.141Z,65.63
2023-12-19T23:21:03.379Z,66.70
2023-12-19T23:23:30.416Z,66.85
2023-12-19T23:25:56.845Z,68.90
2023-12-19T23:28:23.228Z,67.50
2023-12-19T23:30:49.760Z,84.32
2023-12-19T23:33:16.287Z,84.65
2023-12-19T23:35:42.831Z,78.70
2023-12-19T23:38:09.309Z,81.97
2023-12-19T23:40:35.819Z,71.60
2023-12-19T23:43:02.297Z,68.72
2023-12-19T23:45:28.767Z,70.28
2023-12-19T23:47:55.257Z,64.55
2023-12-19T23:50:21.787Z,69.93
2023-12-19T23:52:48.175Z,68.90
2023-12-19T23:55:15.027Z,70.85
2023-12-19T23:57:41.749Z,72.05
